Time;durP1;ratioP1;P1;durP2;ratioP2;P2;SDS_P1;SDS_P2;PMS_P1;PMS_P2;Temp;Humidity;BMP_temperature;BMP_pressure;BME280_temperature;BME280_humidity;BME280_pressure;Samples;Min_cycle;Max_cycle;Signal;HPM_P1;HPM_P2
2022/10/14 00:02:17;;;;;;;36.50;19.50;;;;;;;7.93;68.17;100491.14;103429;1300;139068;-90
2022/10/14 00:04:46;;;;;;;36.10;19.90;;;;;;;7.94;68.17;100488.88;103401;1300;111136;-91
2022/10/14 00:07:14;;;;;;;31.30;18.70;;;;;;;7.96;68.14;100483.81;103508;1291;106960;-87
2022/10/14 00:09:43;;;;;;;36.70;18.90;;;;;;;7.98;68.14;100489.50;103292;1301;140464;-85
2022/10/14 00:12:15;;;;;;;33.00;20.60;;;;;;;7.99;68.24;100488.60;103385;1294;98554;-85
2022/10/14 00:14:43;;;;;;;37.90;19.60;;;;;;;7.98;68.13;100482.05;103478;1297;137784;-92
2022/10/14 00:17:12;;;;;;;33.00;19.40;;;;;;;8.00;68.28;100482.52;103495;1294;110980;-87
2022/10/14 00:19:40;;;;;;;40.90;19.70;;;;;;;8.01;68.20;100478.87;103383;1293;107431;-91
2022/10/14 00:22:09;;;;;;;34.80;20.10;;;;;;;8.01;68.24;100477.11;103454;1301;138716;-92
2022/10/14 00:24:38;;;;;;;35.60;19.40;;;;;;;8.02;68.03;100480.39;103498;1293;97869;-91
2022/10/14 00:27:07;;;;;;;36.90;20.10;;;;;;;8.03;68.06;100472.42;103570;1291;139390;-90
2022/10/14 00:29:35;;;;;;;36.10;19.20;;;;;;;8.03;68.29;100475.88;103498;1301;111945;-88
2022/10/14 00:32:04;;;;;;;33.50;19.20;;;;;;;8.03;68.18;100465.84;103498;1293;108564;-88
2022/10/14 00:34:33;;;;;;;36.30;19.50;;;;;;;8.03;68.17;100469.81;103364;1295;138270;-88
2022/10/14 00:37:03;;;;;;;33.10;19.20;;;;;;;8.02;68.27;100465.16;103501;1287;97837;-92
2022/10/14 00:39:32;;;;;;;32.50;19.30;;;;;;;8.03;68.27;100462.21;103331;1301;139581;-91
2022/10/14 00:42:00;;;;;;;33.10;18.50;;;;;;;8.02;68.28;100461.87;103518;1286;111004;-91
2022/10/14 00:45:01;;;;;;;36.30;20.00;;;;;;;8.02;68.25;100458.41;103341;1294;138745;-89
2022/10/14 00:47:30;;;;;;;29.60;18.40;;;;;;;8.02;68.31;100458.06;103459;1285;107136;-89
2022/10/14 00:50:00;;;;;;;33.20;19.00;;;;;;;8.01;68.36;100463.45;103451;1293;97987;-91
2022/10/14 00:52:30;;;;;;;35.20;18.40;;;;;;;8.00;68.36;100464.86;104143;1294;140539;-90
2022/10/14 00:55:04;;;;;;;33.40;19.50;;;;;;;7.98;68.51;100457.63;103518;1292;110339;-89
2022/10/14 00:57:34;;;;;;;33.20;19.70;;;;;;;7.95;68.44;100459.06;103292;1302;138597;-90
2022/10/14 01:00:07;;;;;;;38.50;20.40;;;;;;;7.92;68.54;100456.70;103455;1295;108030;-88
2022/10/14 01:02:36;;;;;;;34.90;19.60;;;;;;;7.89;68.43;100449.46;103342;1293;140418;-87
2022/10/14 01:05:07;;;;;;;39.30;20.50;;;;;;;7.86;68.50;100451.93;103349;1285;97712;-84
2022/10/14 01:07:45;;;;;;;32.30;20.00;;;;;;;7.83;68.54;100455.97;103422;1297;110966;-86
2022/10/14 01:10:23;;;;;;;32.40;19.50;;;;;;;7.80;68.49;100454.64;103227;1296;138610;-85
2022/10/14 01:13:02;;;;;;;35.90;19.80;;;;;;;7.76;68.65;100454.38;103432;1294;107299;-88
2022/10/14 01:15:40;;;;;;;37.70;21.30;;;;;;;7.73;68.54;100454.44;103289;1300;138836;-91
2022/10/14 01:18:20;;;;;;;36.50;20.40;;;;;;;7.69;68.81;100449.11;103531;1293;98362;-89
2022/10/14 01:21:06;;;;;;;34.50;20.20;;;;;;;7.65;68.69;100446.95;103422;1293;138441;-92
2022/10/14 01:24:09;;;;;;;35.60;20.10;;;;;;;7.62;68.85;100441.63;103393;1284;108099;-85
2022/10/14 01:27:04;;;;;;;34.10;20.50;;;;;;;7.58;68.94;100443.45;103272;1287;138880;-90
2022/10/14 01:30:10;;;;;;;37.60;20.40;;;;;;;7.55;69.14;100442.27;103465;1301;98313;-89
2022/10/14 01:32:49;;;;;;;38.80;19.90;;;;;;;7.53;69.00;100438.50;103382;1292;138404;-87
2022/10/14 01:35:28;;;;;;;40.20;21.80;;;;;;;7.51;69.21;100443.02;103494;1293;110511;-91
2022/10/14 01:38:01;;;;;;;33.30;19.30;;;;;;;7.50;69.18;100434.73;103744;1284;107070;-90
2022/10/14 01:40:36;;;;;;;44.20;21.90;;;;;;;7.48;69.45;100437.55;104818;1287;140437;-88
2022/10/14 01:43:07;;;;;;;40.80;21.70;;;;;;;7.45;69.45;100433.95;103609;1298;97830;-86
2022/10/14 01:45:40;;;;;;;39.10;20.90;;;;;;;7.43;69.62;100437.11;103346;1293;138404;-87
2022/10/14 01:48:16;;;;;;;40.00;21.20;;;;;;;7.42;69.61;100430.74;103473;1293;110832;-84
2022/10/14 01:50:49;;;;;;;37.40;21.00;;;;;;;7.41;69.72;100424.17;103394;1291;138902;-87
2022/10/14 01:53:22;;;;;;;38.00;21.30;;;;;;;7.40;69.77;100421.43;103357;1302;107652;-91
2022/10/14 01:55:54;;;;;;;36.70;21.50;;;;;;;7.39;69.97;100421.10;103390;1293;97844;-89
2022/10/14 01:58:27;;;;;;;32.80;20.60;;;;;;;7.38;69.85;100420.94;103266;1301;140265;-90
2022/10/14 02:00:56;;;;;;;37.90;22.20;;;;;;;7.38;70.07;100422.50;103354;1296;110760;-86
2022/10/14 02:03:25;;;;;;;36.10;21.80;;;;;;;7.37;70.05;100418.54;103267;1291;138836;-89
2022/10/14 02:05:59;;;;;;;37.10;20.60;;;;;;;7.36;70.08;100414.56;103350;1281;106222;-90
2022/10/14 02:08:36;;;;;;;35.60;21.10;;;;;;;7.35;70.08;100412.33;103360;1300;138699;-87
2022/10/14 02:11:10;;;;;;;38.90;21.90;;;;;;;7.32;70.31;100410.98;103533;1302;97827;-91
2022/10/14 02:13:59;;;;;;;41.40;21.80;;;;;;;7.30;70.31;100407.91;103422;1294;110960;-91
2022/10/14 02:16:37;;;;;;;39.90;20.90;;;;;;;7.26;70.43;100408.14;103266;1301;138673;-90
2022/10/14 02:19:18;;;;;;;38.50;21.70;;;;;;;7.24;70.42;100404.91;103459;1293;107757;-89
2022/10/14 02:21:55;;;;;;;32.80;21.00;;;;;;;7.21;70.55;100405.30;103375;1291;138508;-91
2022/10/14 02:24:33;;;;;;;39.50;21.10;;;;;;;7.20;70.65;100408.27;104499;1295;96781;-87
2022/10/14 02:27:08;;;;;;;35.40;21.20;;;;;;;7.18;70.63;100405.69;103272;1294;138297;-87
2022/10/14 02:29:39;;;;;;;32.70;20.80;;;;;;;7.17;70.91;100405.69;103405;1301;107614;-87
2022/10/14 02:32:12;;;;;;;41.10;20.70;;;;;;;7.17;70.86;100399.98;103427;1301;108778;-91
2022/10/14 02:34:43;;;;;;;36.70;20.50;;;;;;;7.18;70.90;100402.23;103494;1294;97888;-90
2022/10/14 02:37:15;;;;;;;42.60;22.10;;;;;;;7.18;70.81;100401.89;103437;1295;99544;-90
2022/10/14 02:39:51;;;;;;;35.50;22.40;;;;;;;7.19;71.06;100399.45;103349;1293;138401;-92
2022/10/14 02:42:19;;;;;;;36.30;21.30;;;;;;;7.18;71.15;100396.52;103438;1294;107675;-87
2022/10/14 02:44:55;;;;;;;35.10;22.00;;;;;;;7.18;71.28;100394.45;103331;1300;139810;-83
2022/10/14 02:47:24;;;;;;;38.60;21.60;;;;;;;7.17;71.14;100390.80;103362;1294;97850;-84
2022/10/14 02:49:53;;;;;;;40.70;22.70;;;;;;;7.17;71.08;100388.40;103343;1301;98364;-85
2022/10/14 02:52:22;;;;;;;37.50;21.70;;;;;;;7.17;71.23;100385.80;103140;1300;139152;-87
2022/10/14 02:54:53;;;;;;;34.80;21.40;;;;;;;7.16;71.32;100389.79;103236;1296;107541;-91
2022/10/14 02:57:23;;;;;;;41.60;21.80;;;;;;;7.17;71.56;100391.52;103289;1291;138722;-90
2022/10/14 02:59:52;;;;;;;40.50;22.10;;;;;;;7.16;71.46;100389.27;103432;1293;97835;-91
2022/10/14 03:02:20;;;;;;;35.00;21.10;;;;;;;7.15;71.54;100384.81;103231;1293;138608;-88
2022/10/14 03:04:50;;;;;;;39.80;22.90;;;;;;;7.12;71.61;100387.09;103333;1301;111585;-89
2022/10/14 03:07:18;;;;;;;38.50;22.80;;;;;;;7.12;71.74;100381.58;103400;1294;108062;-90
2022/10/14 03:09:50;;;;;;;44.30;23.00;;;;;;;7.10;71.70;100377.27;104885;1299;139160;-92
2022/10/14 03:12:19;;;;;;;41.10;22.70;;;;;;;7.09;71.80;100381.45;104015;1288;97847;-89
2022/10/14 03:14:49;;;;;;;39.80;23.30;;;;;;;7.08;71.85;100376.63;103290;1301;138670;-88
2022/10/14 03:17:18;;;;;;;38.40;23.00;;;;;;;7.07;71.94;100376.13;103294;1301;110871;-86
2022/10/14 03:19:47;;;;;;;38.00;21.80;;;;;;;7.07;71.99;100374.73;103583;1293;109261;-85
2022/10/14 03:22:16;;;;;;;34.40;22.00;;;;;;;7.08;72.06;100373.17;103181;1294;138697;-85
2022/10/14 03:24:45;;;;;;;43.50;22.60;;;;;;;7.07;72.04;100376.46;103320;1294;97956;-86
2022/10/14 03:27:28;;;;;;;40.10;21.30;;;;;;;7.07;72.18;100372.84;103089;1299;138450;-88
2022/10/14 03:30:01;;;;;;;37.10;21.70;;;;;;;7.06;72.11;100372.69;103384;1299;111710;-87
2022/10/14 03:32:30;;;;;;;40.30;22.80;;;;;;;7.05;72.26;100372.70;103257;1297;139993;-84
2022/10/14 03:35:19;;;;;;;38.90;22.00;;;;;;;7.03;72.19;100371.17;103371;1293;107900;-89
2022/10/14 03:37:49;;;;;;;36.60;21.80;;;;;;;7.02;72.45;100370.85;103334;1301;97846;-84
2022/10/14 03:40:19;;;;;;;36.50;22.50;;;;;;;7.02;72.26;100372.76;103208;1293;138471;-86
2022/10/14 03:42:48;;;;;;;42.50;22.60;;;;;;;7.01;72.47;100371.90;103366;1301;111638;-89
2022/10/14 03:45:17;;;;;;;39.10;22.10;;;;;;;7.00;72.48;100372.42;103182;1294;138713;-89
2022/10/14 03:47:48;;;;;;;38.70;22.30;;;;;;;6.98;72.44;100370.54;103558;1292;107658;-88
2022/10/14 03:50:17;;;;;;;38.30;21.50;;;;;;;6.97;72.46;100370.39;103290;1286;137942;-90
2022/10/14 03:52:51;;;;;;;39.90;22.50;;;;;;;6.94;72.52;100364.73;103533;1290;98334;-90
2022/10/14 03:55:32;;;;;;;40.70;22.60;;;;;;;6.90;72.82;100368.08;103480;1301;111043;-85
2022/10/14 03:58:01;;;;;;;34.00;22.00;;;;;;;6.87;72.72;100368.66;103378;1291;139971;-89
2022/10/14 04:00:30;;;;;;;40.20;22.90;;;;;;;6.84;72.87;100366.80;103431;1299;107410;-85
2022/10/14 04:03:08;;;;;;;35.50;22.50;;;;;;;6.82;72.96;100367.52;103156;1300;138590;-87
2022/10/14 04:05:40;;;;;;;40.00;22.70;;;;;;;6.80;73.02;100365.45;103340;1297;98435;-82
2022/10/14 04:08:12;;;;;;;39.60;23.00;;;;;;;6.77;73.30;100360.84;103291;1294;110804;-88
2022/10/14 04:10:43;;;;;;;38.90;23.20;;;;;;;6.75;73.16;100359.84;103460;1301;109051;-87
2022/10/14 04:13:13;;;;;;;38.90;22.80;;;;;;;6.73;73.37;100357.79;104978;1294;106097;-88
2022/10/14 04:15:42;;;;;;;33.70;22.30;;;;;;;6.72;73.51;100359.20;104669;1293;140835;-88
2022/10/14 04:18:16;;;;;;;39.80;22.80;;;;;;;6.70;73.59;100355.09;103854;1301;98048;-85
2022/10/14 04:20:45;;;;;;;40.80;23.20;;;;;;;6.67;73.75;100353.73;103182;1291;139516;-90
2022/10/14 04:23:15;;;;;;;39.70;24.00;;;;;;;6.65;74.01;100347.38;103432;1295;107874;-86
2022/10/14 04:25:45;;;;;;;40.80;22.90;;;;;;;6.64;74.00;100342.90;103309;1297;108138;-89
2022/10/14 04:28:14;;;;;;;39.60;24.00;;;;;;;6.64;74.08;100343.41;103614;1294;138421;-92
2022/10/14 04:30:47;;;;;;;40.10;24.50;;;;;;;6.64;74.21;100337.36;103428;1293;98334;-84
2022/10/14 04:33:20;;;;;;;48.40;25.50;;;;;;;6.65;74.26;100329.94;103291;1294;138383;-85
2022/10/14 04:35:50;;;;;;;39.50;23.20;;;;;;;6.65;74.37;100328.39;103304;1294;107253;-88
2022/10/14 04:38:25;;;;;;;34.90;23.00;;;;;;;6.64;74.43;100324.06;103221;1299;138802;-83
2022/10/14 04:40:58;;;;;;;40.00;24.10;;;;;;;6.64;74.33;100322.51;103307;1299;97845;-88
2022/10/14 04:43:27;;;;;;;37.80;23.80;;;;;;;6.64;74.59;100320.95;103353;1294;99001;-83
2022/10/14 04:45:56;;;;;;;40.90;24.10;;;;;;;6.63;74.60;100314.39;103198;1294;138987;-90
2022/10/14 04:48:26;;;;;;;38.80;23.80;;;;;;;6.63;74.47;100322.16;103283;1299;107324;-84
2022/10/14 04:50:55;;;;;;;40.90;24.80;;;;;;;6.62;74.69;100319.07;103160;1301;138897;-84
2022/10/14 04:53:35;;;;;;;41.70;25.40;;;;;;;6.61;74.56;100314.25;103250;1296;97836;-86
2022/10/14 04:56:14;;;;;;;41.10;24.40;;;;;;;6.61;74.84;100312.52;103210;1298;138657;-84
2022/10/14 04:58:52;;;;;;;38.90;23.60;;;;;;;6.62;74.95;100317.35;103299;1303;111770;-90
2022/10/14 05:01:21;;;;;;;36.30;23.30;;;;;;;6.61;75.04;100311.13;103455;1293;107603;-83
2022/10/14 05:03:50;;;;;;;38.70;24.00;;;;;;;6.61;75.09;100315.45;103142;1304;138637;-86
2022/10/14 05:06:20;;;;;;;43.80;24.20;;;;;;;6.62;75.02;100318.55;103326;1298;97936;-89
2022/10/14 05:08:49;;;;;;;42.40;23.30;;;;;;;6.62;74.97;100318.38;104172;1290;139899;-86
2022/10/14 05:11:18;;;;;;;42.80;24.40;;;;;;;6.62;74.92;100316.64;103296;1300;111876;-90
2022/10/14 05:13:53;;;;;;;42.50;24.60;;;;;;;6.63;75.13;100314.05;103401;1283;107520;-89
2022/10/14 05:16:22;;;;;;;42.70;24.00;;;;;;;6.64;75.25;100316.12;103168;1304;140141;-88
2022/10/14 05:18:51;;;;;;;43.90;24.60;;;;;;;6.65;75.27;100313.69;103263;1286;97829;-88
2022/10/14 05:21:19;;;;;;;40.90;25.00;;;;;;;6.67;75.32;100313.48;103220;1292;140095;-86
2022/10/14 05:24:10;;;;;;;38.60;24.10;;;;;;;6.71;75.18;100314.64;103426;1301;111183;-92
2022/10/14 05:26:40;;;;;;;39.80;24.80;;;;;;;6.74;75.28;100312.69;103319;1300;138762;-90
2022/10/14 05:29:11;;;;;;;39.20;24.10;;;;;;;6.78;75.20;100309.85;103349;1301;108932;-87
2022/10/14 05:31:40;;;;;;;37.40;24.10;;;;;;;6.85;75.15;100314.59;103231;1294;97839;-88
2022/10/14 05:34:20;;;;;;;41.20;25.00;;;;;;;6.92;75.17;100315.33;103135;1295;138697;-85
2022/10/14 05:36:48;;;;;;;42.30;25.30;;;;;;;6.99;74.99;100314.17;103272;1300;112382;-87
2022/10/14 05:39:17;;;;;;;43.30;24.60;;;;;;;7.05;74.96;100315.30;103176;1293;139143;-85
2022/10/14 05:41:46;;;;;;;46.60;25.30;;;;;;;7.11;74.81;100311.91;103319;1300;109449;-87
2022/10/14 05:44:15;;;;;;;43.00;24.10;;;;;;;7.15;74.71;100309.05;103166;1294;138696;-86
2022/10/14 05:46:45;;;;;;;49.90;23.90;;;;;;;7.23;74.69;100310.32;103330;1291;98439;-83
2022/10/14 05:49:16;;;;;;;39.00;24.10;;;;;;;7.31;74.62;100311.21;103310;1291;111439;-86
2022/10/14 05:51:45;;;;;;;41.90;23.30;;;;;;;7.36;74.41;100314.05;103226;1294;138657;-84
2022/10/14 05:54:18;;;;;;;43.70;23.80;;;;;;;7.42;74.38;100317.08;103196;1303;107502;-84
2022/10/14 05:56:48;;;;;;;38.80;23.40;;;;;;;7.49;74.18;100318.14;103194;1292;138649;-81
2022/10/14 05:59:17;;;;;;;42.70;23.60;;;;;;;7.58;74.25;100313.84;103238;1295;100568;-84
2022/10/14 06:01:46;;;;;;;42.70;23.50;;;;;;;7.67;74.22;100308.63;103261;1285;113010;-84
2022/10/14 06:04:18;;;;;;;37.90;23.00;;;;;;;7.79;73.98;100309.44;103221;1287;137299;-89
2022/10/14 06:06:47;;;;;;;41.30;23.40;;;;;;;8.01;73.93;100315.24;103241;1290;107360;-83
2022/10/14 06:09:16;;;;;;;39.90;23.50;;;;;;;8.24;73.59;100319.77;103127;1288;139243;-85
2022/10/14 06:11:45;;;;;;;38.80;22.90;;;;;;;8.45;73.10;100320.21;103237;1294;97876;-83
2022/10/14 06:14:14;;;;;;;39.90;22.30;;;;;;;8.66;72.94;100315.23;103103;1295;138487;-83
2022/10/14 06:16:43;;;;;;;39.50;23.00;;;;;;;8.83;72.33;100319.52;103186;1278;108838;-83
2022/10/14 06:19:11;;;;;;;37.30;22.90;;;;;;;8.95;71.85;100316.10;103199;1293;107938;-83
2022/10/14 06:21:40;;;;;;;38.20;22.90;;;;;;;9.02;71.50;100315.40;103031;1293;138911;-86
2022/10/14 06:24:09;;;;;;;44.00;23.40;;;;;;;9.05;71.27;100317.23;103326;1298;98461;-83
2022/10/14 06:26:38;;;;;;;33.50;22.30;;;;;;;9.07;70.97;100324.30;103175;1294;138764;-87
2022/10/14 06:29:06;;;;;;;36.00;23.10;;;;;;;9.02;70.90;100331.54;103222;1291;108030;-84
2022/10/14 06:31:35;;;;;;;37.50;22.40;;;;;;;8.92;70.76;100319.63;103288;1301;107559;-85
2022/10/14 06:34:05;;;;;;;41.20;23.80;;;;;;;8.84;70.79;100322.98;103278;1309;140525;-86
2022/10/14 06:36:35;;;;;;;41.70;23.10;;;;;;;8.76;70.90;100322.95;103391;1299;97741;-85
2022/10/14 06:39:04;;;;;;;38.40;24.10;;;;;;;8.73;71.01;100327.88;103217;1301;138392;-89
2022/10/14 06:41:33;;;;;;;37.80;23.70;;;;;;;8.80;71.00;100326.69;103384;1290;108825;-83
2022/10/14 06:44:02;;;;;;;38.10;23.50;;;;;;;9.04;70.81;100320.71;103392;1292;107508;-82
2022/10/14 06:46:31;;;;;;;41.30;24.20;;;;;;;9.29;70.47;100322.70;103245;1298;140180;-85
2022/10/14 06:48:59;;;;;;;37.50;23.90;;;;;;;9.45;69.93;100338.42;103366;1299;97831;-82
2022/10/14 06:51:28;;;;;;;41.70;23.10;;;;;;;9.43;69.81;100332.40;103256;1284;138716;-82
2022/10/14 06:53:57;;;;;;;41.50;23.30;;;;;;;9.46;69.84;100333.17;103285;1290;109124;-84
2022/10/14 06:56:25;;;;;;;36.70;24.10;;;;;;;9.54;69.67;100337.14;103176;1300;138873;-78
2022/10/14 06:58:55;;;;;;;38.60;23.70;;;;;;;9.64;69.48;100332.53;103328;1291;97843;-83
2022/10/14 07:01:24;;;;;;;35.80;23.60;;;;;;;9.87;69.30;100337.10;103293;1298;97733;-86
2022/10/14 07:03:53;;;;;;;35.70;22.90;;;;;;;10.13;68.65;100334.98;103270;1290;138586;-86
2022/10/14 07:06:25;;;;;;;34.80;23.20;;;;;;;10.23;68.37;100332.63;104932;1290;107463;-89
2022/10/14 07:08:54;;;;;;;34.20;23.00;;;;;;;10.26;67.93;100333.96;103629;1286;139334;-88
2022/10/14 07:11:23;;;;;;;36.00;23.70;;;;;;;10.17;67.58;100335.37;103325;1291;98460;-84
2022/10/14 07:13:51;;;;;;;38.50;23.40;;;;;;;10.11;67.86;100336.79;103308;1294;97856;-86
2022/10/14 07:16:20;;;;;;;36.40;23.50;;;;;;;10.10;67.81;100331.60;102978;1296;139289;-85
2022/10/14 07:18:49;;;;;;;38.30;23.40;;;;;;;10.08;67.91;100328.02;103035;1299;107941;-81
2022/10/14 07:21:18;;;;;;;39.90;23.30;;;;;;;10.11;68.25;100329.83;102950;1290;139342;-82
2022/10/14 07:23:47;;;;;;;37.80;23.90;;;;;;;10.17;68.06;100329.13;103061;1281;97820;-87
2022/10/14 07:26:16;;;;;;;39.70;24.00;;;;;;;10.20;67.72;100333.21;103001;1284;138864;-84
2022/10/14 07:28:44;;;;;;;39.40;23.70;;;;;;;10.24;67.76;100329.65;103049;1284;111884;-87
2022/10/14 07:31:13;;;;;;;39.90;23.60;;;;;;;10.41;67.78;100326.02;103104;1285;108093;-82
2022/10/14 07:33:42;;;;;;;35.40;22.80;;;;;;;11.02;67.58;100326.55;103000;1290;138924;-83
2022/10/14 07:36:14;;;;;;;35.40;22.00;;;;;;;11.55;66.56;100322.47;103020;1307;97863;-83
2022/10/14 07:38:48;;;;;;;37.60;22.60;;;;;;;11.98;65.73;100329.50;102804;1295;139848;-82
2022/10/14 07:41:18;;;;;;;36.90;22.50;;;;;;;12.35;65.08;100322.54;103059;1291;110452;-88
2022/10/14 07:43:49;;;;;;;33.40;21.20;;;;;;;12.64;64.05;100314.05;103046;1290;108030;-83
2022/10/14 07:46:28;;;;;;;35.10;21.60;;;;;;;12.84;63.74;100314.50;102945;1290;139687;-80
2022/10/14 07:48:57;;;;;;;33.40;22.30;;;;;;;12.89;63.35;100317.06;102952;1283;97925;-81
2022/10/14 07:51:27;;;;;;;37.00;20.70;;;;;;;12.95;63.29;100316.48;102886;1294;138701;-82
2022/10/14 07:53:59;;;;;;;35.90;21.30;;;;;;;13.14;62.77;100311.88;103031;1283;111452;-81
2022/10/14 07:56:28;;;;;;;33.10;21.30;;;;;;;13.25;62.21;100317.88;102909;1286;138925;-77
2022/10/14 07:58:58;;;;;;;29.50;20.10;;;;;;;13.30;62.00;100313.14;103049;1290;107907;-74
2022/10/14 08:01:27;;;;;;;32.00;20.00;;;;;;;13.34;61.82;100313.69;103017;1290;97829;-82
2022/10/14 08:03:56;;;;;;;31.70;20.50;;;;;;;13.48;61.38;100311.00;102916;1293;140576;-78
2022/10/14 08:06:26;;;;;;;34.30;21.00;;;;;;;13.54;61.08;100308.44;103027;1295;111628;-76
2022/10/14 08:08:54;;;;;;;28.30;19.00;;;;;;;13.66;61.04;100310.20;102926;1296;139014;-82
2022/10/14 08:11:25;;;;;;;29.00;20.90;;;;;;;13.78;60.49;100313.34;103009;1290;109246;-77
2022/10/14 08:13:57;;;;;;;27.40;18.40;;;;;;;14.15;60.83;100303.44;102991;1290;97877;-78
2022/10/14 08:16:28;;;;;;;32.80;20.90;;;;;;;14.73;60.16;100301.10;102922;1290;138221;-78
2022/10/14 08:18:59;;;;;;;32.40;20.80;;;;;;;15.12;59.49;100293.88;102997;1290;110722;-77
2022/10/14 08:21:28;;;;;;;30.40;20.00;;;;;;;15.24;59.01;100294.70;102994;1290;138261;-78
2022/10/14 08:23:57;;;;;;;35.70;20.20;;;;;;;15.27;58.48;100295.59;103061;1300;107242;-79
2022/10/14 08:26:30;;;;;;;33.00;19.90;;;;;;;15.28;58.27;100293.11;102959;1291;140023;-78
2022/10/14 08:29:00;;;;;;;32.40;18.30;;;;;;;15.31;58.05;100296.45;103914;1292;98356;-79
2022/10/14 08:31:29;;;;;;;37.40;20.30;;;;;;;15.21;57.47;100301.34;103081;1290;112496;-79
2022/10/14 08:33:59;;;;;;;35.60;19.70;;;;;;;14.98;57.10;100309.83;102834;1290;140421;-79
2022/10/14 08:36:31;;;;;;;29.70;19.50;;;;;;;14.76;57.37;100317.76;102959;1284;108067;-76
2022/10/14 08:39:00;;;;;;;29.10;18.70;;;;;;;14.48;57.61;100319.95;102871;1299;138138;-78
2022/10/14 08:41:51;;;;;;;35.60;18.30;;;;;;;14.31;57.83;100324.02;102979;1295;97724;-79
2022/10/14 08:44:24;;;;;;;27.60;18.50;;;;;;;14.17;57.84;100322.74;102899;1293;138104;-80
2022/10/14 08:46:56;;;;;;;32.40;19.20;;;;;;;13.99;58.04;100321.46;103170;1290;107840;-78
2022/10/14 08:49:29;;;;;;;34.90;18.70;;;;;;;13.82;58.22;100321.35;103020;1294;106746;-76
2022/10/14 08:52:02;;;;;;;27.90;19.30;;;;;;;13.70;58.61;100322.09;102862;1290;138799;-78
2022/10/14 08:54:36;;;;;;;27.70;18.70;;;;;;;13.62;58.92;100319.11;103024;1292;98899;-79
2022/10/14 08:57:11;;;;;;;31.10;18.90;;;;;;;13.77;59.22;100318.46;102915;1290;138328;-77
2022/10/14 08:59:41;;;;;;;29.50;17.70;;;;;;;13.91;58.84;100316.23;103020;1293;108902;-77
2022/10/14 09:02:23;;;;;;;29.20;18.10;;;;;;;14.03;58.72;100309.94;102934;1294;107883;-76
2022/10/14 09:04:53;;;;;;;28.60;18.50;;;;;;;14.31;58.56;100310.38;102975;1288;97834;-78
2022/10/14 09:07:22;;;;;;;32.50;19.40;;;;;;;14.55;58.28;100299.50;103010;1292;97916;-79
2022/10/14 09:09:54;;;;;;;28.50;17.80;;;;;;;14.62;57.85;100304.09;102890;1290;137965;-78
2022/10/14 09:12:27;;;;;;;30.30;18.70;;;;;;;14.64;57.63;100297.34;103009;1290;107754;-80
2022/10/14 09:15:09;;;;;;;31.80;18.60;;;;;;;14.74;57.63;100295.60;102869;1286;138364;-77
2022/10/14 09:17:48;;;;;;;31.00;18.70;;;;;;;14.98;57.80;100292.31;103026;1284;97870;-80
2022/10/14 09:20:20;;;;;;;26.80;18.20;;;;;;;15.27;57.52;100296.30;103029;1284;97839;-78
2022/10/14 09:23:00;;;;;;;33.90;18.90;;;;;;;15.53;57.22;100300.77;104632;1292;112052;-80
2022/10/14 09:25:32;;;;;;;28.40;18.40;;;;;;;15.59;56.38;100301.14;104657;1302;108117;-78
2022/10/14 09:28:01;;;;;;;35.90;19.70;;;;;;;15.50;56.16;100302.65;104521;1291;138728;-80
2022/10/14 09:30:35;;;;;;;33.10;19.30;;;;;;;15.25;55.98;100302.86;104640;1297;96728;-79
2022/10/14 09:33:05;;;;;;;35.90;20.30;;;;;;;14.94;56.27;100289.04;104519;1301;138248;-77
2022/10/14 09:35:36;;;;;;;29.80;19.80;;;;;;;14.70;56.93;100292.67;104665;1293;109380;-79
2022/10/14 09:38:06;;;;;;;33.10;19.10;;;;;;;14.51;57.33;100286.06;104607;1290;106774;-77
2022/10/14 09:40:38;;;;;;;32.00;19.50;;;;;;;14.38;57.69;100295.91;104549;1302;140269;-81
2022/10/14 09:43:15;;;;;;;34.90;20.20;;;;;;;14.24;57.95;100302.18;104329;1293;96367;-78
2022/10/14 09:45:50;;;;;;;;;;;;;;;14.13;58.18;100300.92;102973;1285;138048;-79
2022/10/14 09:48:30;;;;;;;32.20;19.20;;;;;;;13.99;58.41;100300.86;102944;1286;111929;-78
2022/10/14 09:51:01;;;;;;;33.00;20.20;;;;;;;13.90;58.81;100298.79;102877;1290;138480;-78
2022/10/14 09:53:32;;;;;;;33.10;19.70;;;;;;;13.93;58.95;100300.41;103039;1295;107029;-78
2022/10/14 09:56:04;;;;;;;32.60;20.60;;;;;;;13.93;58.94;100302.02;102972;1292;98568;-79
2022/10/14 09:58:38;;;;;;;32.00;20.00;;;;;;;13.84;58.93;100302.23;102949;1291;138045;-78
2022/10/14 10:01:13;;;;;;;28.40;19.20;;;;;;;13.73;59.13;100302.72;102960;1292;111165;-79
2022/10/14 10:03:42;;;;;;;35.60;21.40;;;;;;;13.63;59.39;100302.27;102930;1290;138218;-78
2022/10/14 10:06:13;;;;;;;32.70;20.50;;;;;;;13.54;59.51;100300.40;102986;1285;107635;-77
2022/10/14 10:08:55;;;;;;;28.00;19.40;;;;;;;13.47;59.64;100299.00;102886;1292;138411;-77
2022/10/14 10:11:30;;;;;;;34.80;19.80;;;;;;;13.38;59.92;100297.80;102988;1285;98015;-77
2022/10/14 10:13:58;;;;;;;28.50;19.30;;;;;;;13.36;60.19;100299.29;104603;1285;111643;-76
2022/10/14 10:16:30;;;;;;;30.70;20.10;;;;;;;13.39;60.45;100296.17;102885;1290;138871;-75
2022/10/14 10:19:26;;;;;;;30.60;19.80;;;;;;;13.42;60.54;100293.06;102945;1291;107513;-76
2022/10/14 10:22:15;;;;;;;32.70;20.00;;;;;;;13.50;60.62;100285.91;102938;1294;140152;-76
2022/10/14 10:24:47;;;;;;;31.00;19.80;;;;;;;13.55;60.56;100287.09;103070;1292;97721;-77
2022/10/14 10:27:23;;;;;;;34.50;20.30;;;;;;;13.60;60.65;100287.39;102899;1287;138687;-78
2022/10/14 10:29:54;;;;;;;34.10;19.30;;;;;;;13.80;60.75;100282.30;103005;1287;107609;-73
2022/10/14 10:32:29;;;;;;;28.90;18.70;;;;;;;14.10;60.67;100280.41;102929;1284;138917;-74
2022/10/14 10:35:14;;;;;;;29.60;17.90;;;;;;;14.39;60.42;100269.98;102869;1294;97834;-77
2022/10/14 10:37:55;;;;;;;30.00;18.30;;;;;;;14.71;59.98;100270.01;102957;1278;98261;-76
2022/10/14 10:40:47;;;;;;;33.10;19.10;;;;;;;15.00;59.49;100269.80;102868;1290;138800;-78
2022/10/14 10:43:36;;;;;;;32.90;18.70;;;;;;;15.31;59.01;100268.26;102992;1292;107190;-77
2022/10/14 10:46:23;;;;;;;30.80;19.70;;;;;;;15.56;58.55;100269.02;102887;1293;138172;-80
2022/10/14 10:49:00;;;;;;;27.10;18.00;;;;;;;15.74;58.20;100263.91;103022;1290;97823;-77
2022/10/14 10:51:38;;;;;;;32.90;18.30;;;;;;;15.88;58.07;100258.09;102956;1293;138537;-77
2022/10/14 10:54:24;;;;;;;32.00;19.00;;;;;;;16.02;57.70;100258.05;103043;1287;111036;-79
2022/10/14 10:56:56;;;;;;;31.10;18.80;;;;;;;16.05;57.25;100260.48;102889;1293;138622;-77
2022/10/14 10:59:55;;;;;;;32.60;18.00;;;;;;;16.09;57.13;100260.45;102984;1285;106128;-76
2022/10/14 11:03:02;;;;;;;32.00;18.60;;;;;;;16.20;57.12;100254.23;102796;1293;166500;-76
2022/10/14 11:05:42;;;;;;;31.60;18.20;;;;;;;16.30;57.06;100255.94;102999;1285;98351;-77
2022/10/14 11:14:21;;;;;;;30.90;19.30;;;;;;;16.42;56.68;100243.35;104614;1294;107079;-76
2022/10/14 11:17:00;;;;;;;30.80;18.50;;;;;;;16.60;57.12;100240.91;104615;1293;96915;-76
2022/10/14 11:19:37;;;;;;;37.50;19.60;;;;;;;16.81;56.68;100233.97;104644;1294;97306;-77
2022/10/14 11:22:22;;;;;;;34.60;19.70;;;;;;;17.04;56.43;100233.31;104552;1294;140943;-76
2022/10/14 11:25:02;;;;;;;30.70;18.80;;;;;;;17.10;55.84;100233.98;104647;1290;107081;-80
2022/10/14 11:27:37;;;;;;;35.50;18.80;;;;;;;17.00;55.41;100235.30;104505;1294;139018;-77
2022/10/14 11:30:15;;;;;;;31.80;19.30;;;;;;;16.86;55.56;100231.69;104669;1290;97130;-79
2022/10/14 11:32:58;;;;;;;27.60;19.50;;;;;;;16.79;55.47;100229.11;104589;1292;139640;-77